createdAt,value
2017-09-17T00:00:15.681Z,8.70
2017-09-17T00:03:18.034Z,8.70
2017-09-17T00:06:19.987Z,8.70
2017-09-17T00:09:23.048Z,8.60
2017-09-17T00:12:25.032Z,8.50
2017-09-17T00:15:27.447Z,8.50
2017-09-17T00:18:29.503Z,8.40
2017-09-17T00:21:31.856Z,8.40
2017-09-17T00:24:33.808Z,8.30
2017-09-17T00:27:36.109Z,8.20
2017-09-17T00:30:38.037Z,8.20
2017-09-17T00:33:40.359Z,8.10
2017-09-17T00:36:42.320Z,8.10
2017-09-17T00:39:44.681Z,8.00
2017-09-17T00:42:46.767Z,8.00
2017-09-17T00:45:49.212Z,8.00
2017-09-17T00:48:51.251Z,7.90
2017-09-17T00:51:53.590Z,7.90
2017-09-17T00:54:55.515Z,7.90
2017-09-17T00:57:58.620Z,7.80
2017-09-17T01:01:00.675Z,7.80
2017-09-17T01:04:03.012Z,7.70
2017-09-17T01:07:04.947Z,7.70
2017-09-17T01:10:07.325Z,7.70
2017-09-17T01:13:09.391Z,7.70
2017-09-17T01:16:11.746Z,7.60
2017-09-17T01:19:13.678Z,7.60
2017-09-17T01:22:16.045Z,7.60
2017-09-17T01:25:17.971Z,7.50
2017-09-17T01:28:20.275Z,7.50
2017-09-17T01:31:22.292Z,7.40
2017-09-17T01:34:24.552Z,7.40
2017-09-17T01:37:26.627Z,7.40
2017-09-17T01:40:29.156Z,7.40
2017-09-17T01:43:31.100Z,7.30
2017-09-17T01:46:33.474Z,7.30
2017-09-17T01:49:35.398Z,7.20
2017-09-17T01:52:37.758Z,7.20
2017-09-17T01:55:39.717Z,7.10
2017-09-17T01:58:42.071Z,7.10
2017-09-17T02:01:43.999Z,7.10
2017-09-17T02:04:47.106Z,7.10
2017-09-17T02:07:49.162Z,7.00
2017-09-17T02:10:51.519Z,7.00
2017-09-17T02:13:53.660Z,7.00
2017-09-17T02:16:56.016Z,7.00
2017-09-17T02:19:57.947Z,6.90
2017-09-17T02:23:00.333Z,6.90
2017-09-17T02:26:02.383Z,6.90
2017-09-17T02:29:04.727Z,6.90
2017-09-17T02:32:06.669Z,6.90
2017-09-17T02:35:09.142Z,6.90
2017-09-17T02:38:11.086Z,6.90
2017-09-17T02:41:13.440Z,6.90
2017-09-17T02:44:15.377Z,6.90
2017-09-17T02:47:17.749Z,6.90
2017-09-17T02:50:19.694Z,6.90
2017-09-17T02:53:22.065Z,6.90
2017-09-17T02:56:24.108Z,6.90
2017-09-17T02:59:26.588Z,7.00
2017-09-17T03:02:28.710Z,7.00
2017-09-17T03:05:31.169Z,7.00
2017-09-17T03:08:33.105Z,7.10
2017-09-17T03:11:35.488Z,7.20
2017-09-17T03:14:37.414Z,7.20
2017-09-17T03:17:39.783Z,7.20
2017-09-17T03:20:41.711Z,7.20
2017-09-17T03:23:44.089Z,7.20
2017-09-17T03:26:46.022Z,7.20
2017-09-17T03:29:48.402Z,7.20
2017-09-17T03:32:50.440Z,7.20
2017-09-17T03:35:52.818Z,7.10
2017-09-17T03:38:54.747Z,7.10
2017-09-17T03:41:57.108Z,7.10
2017-09-17T03:44:59.049Z,7.10
2017-09-17T03:48:01.354Z,7.10
2017-09-17T03:51:03.361Z,7.10
2017-09-17T03:54:05.719Z,7.20
2017-09-17T03:57:07.670Z,7.20
2017-09-17T04:00:10.126Z,7.30
2017-09-17T04:03:12.066Z,7.30
2017-09-17T04:06:14.482Z,7.40
2017-09-17T04:09:16.469Z,7.40
2017-09-17T04:12:18.847Z,7.40
2017-09-17T04:15:20.872Z,7.40
2017-09-17T04:18:23.269Z,7.40
2017-09-17T04:21:25.391Z,7.40
2017-09-17T04:24:27.881Z,7.40
2017-09-17T04:27:29.828Z,7.50
2017-09-17T04:30:32.254Z,7.50
2017-09-17T04:33:34.220Z,7.50
2017-09-17T04:36:36.559Z,7.50
2017-09-17T04:39:38.514Z,7.50
2017-09-17T04:42:41.798Z,7.60
2017-09-17T04:45:44.562Z,7.50
2017-09-17T04:48:46.929Z,7.60
2017-09-17T04:51:48.988Z,7.60
2017-09-17T04:54:51.448Z,7.70
2017-09-17T04:57:53.482Z,7.70
2017-09-17T05:00:56.521Z,7.80
2017-09-17T05:03:59.212Z,7.80
2017-09-17T05:07:01.579Z,7.70
2017-09-17T05:10:03.521Z,7.70
2017-09-17T05:13:05.889Z,7.80
2017-09-17T05:16:07.950Z,7.80
2017-09-17T05:19:10.308Z,7.80
2017-09-17T05:22:13.159Z,7.80
2017-09-17T05:25:15.448Z,7.80
2017-09-17T05:28:17.668Z,7.90
2017-09-17T05:31:20.135Z,7.90
2017-09-17T05:34:22.074Z,7.90
2017-09-17T05:37:25.235Z,8.00
2017-09-17T05:40:27.248Z,8.00
2017-09-17T05:43:29.579Z,8.00
2017-09-17T05:46:31.613Z,8.10
2017-09-17T05:49:33.983Z,8.10
2017-09-17T05:52:35.927Z,8.20
2017-09-17T05:55:38.262Z,8.20
2017-09-17T05:58:40.219Z,8.20
2017-09-17T06:01:42.590Z,8.30
2017-09-17T06:04:44.628Z,8.30
2017-09-17T06:07:46.983Z,8.30
2017-09-17T06:10:48.933Z,8.40
2017-09-17T06:13:51.282Z,8.40
2017-09-17T06:16:53.229Z,8.50
2017-09-17T06:19:55.590Z,8.60
2017-09-17T06:22:57.590Z,8.70
2017-09-17T06:25:59.898Z,8.70
2017-09-17T06:29:01.945Z,8.80
2017-09-17T06:32:04.323Z,8.90
2017-09-17T06:35:06.349Z,9.00
2017-09-17T06:38:08.875Z,9.10
2017-09-17T06:41:10.810Z,9.20
2017-09-17T06:44:13.125Z,9.30
2017-09-17T06:47:15.171Z,9.50
2017-09-17T06:50:17.736Z,9.60
2017-09-17T06:53:19.673Z,9.80
2017-09-17T06:56:22.158Z,9.90
2017-09-17T06:59:24.201Z,10.00
2017-09-17T07:02:26.552Z,10.20
2017-09-17T07:05:28.615Z,10.30
2017-09-17T07:08:30.968Z,10.50
2017-09-17T07:11:33.013Z,10.60
2017-09-17T07:14:35.302Z,10.80
2017-09-17T07:17:37.325Z,10.90
2017-09-17T07:20:39.685Z,11.10
2017-09-17T07:23:41.733Z,11.30
2017-09-17T07:26:44.080Z,11.50
2017-09-17T07:29:46.019Z,11.90
2017-09-17T07:32:48.397Z,12.20
2017-09-17T07:35:50.352Z,12.60
2017-09-17T07:38:53.496Z,13.60
2017-09-17T07:41:55.562Z,13.50
2017-09-17T07:44:57.862Z,14.00
2017-09-17T07:47:59.888Z,14.50
2017-09-17T07:51:02.245Z,15.10
2017-09-17T07:54:04.279Z,15.90
2017-09-17T07:57:06.661Z,16.70
2017-09-17T08:00:08.688Z,17.80
2017-09-17T08:03:11.060Z,19.00
2017-09-17T08:06:12.992Z,20.20
2017-09-17T08:09:15.334Z,21.10
2017-09-17T08:12:17.289Z,22.10
2017-09-17T08:15:19.586Z,23.10
2017-09-17T08:18:21.546Z,24.00
2017-09-17T08:21:23.961Z,24.90
2017-09-17T08:24:25.999Z,25.50
2017-09-17T08:27:28.368Z,26.40
2017-09-17T08:30:30.348Z,27.30
2017-09-17T08:33:33.681Z,27.80
2017-09-17T08:36:35.616Z,27.90
2017-09-17T08:39:38.724Z,28.50
2017-09-17T08:42:40.780Z,28.50
2017-09-17T08:45:43.085Z,29.10
2017-09-17T08:48:46.708Z,28.80
2017-09-17T08:51:49.068Z,28.80
2017-09-17T08:54:51.141Z,29.30
2017-09-17T08:57:53.478Z,29.60
2017-09-17T09:00:55.423Z,30.50
2017-09-17T09:03:57.799Z,30.90
2017-09-17T09:06:59.758Z,31.30
2017-09-17T09:10:02.102Z,31.10
2017-09-17T09:13:04.047Z,31.50
2017-09-17T09:16:06.391Z,31.70
2017-09-17T09:19:08.329Z,31.40
2017-09-17T09:22:10.691Z,31.10
2017-09-17T09:25:12.645Z,31.00
2017-09-17T09:28:15.009Z,30.90
2017-09-17T09:31:17.048Z,31.80
2017-09-17T09:34:19.421Z,32.70
2017-09-17T09:37:21.482Z,33.30
2017-09-17T09:40:23.927Z,33.40
2017-09-17T09:43:25.973Z,33.80
2017-09-17T09:46:28.384Z,33.70
2017-09-17T09:49:31.098Z,31.70
2017-09-17T09:52:33.451Z,31.60
2017-09-17T09:55:35.508Z,31.00
2017-09-17T09:58:37.852Z,30.50
2017-09-17T10:01:39.875Z,31.10
2017-09-17T10:04:42.962Z,32.10
2017-09-17T10:07:44.923Z,32.10
2017-09-17T10:10:47.292Z,31.70
2017-09-17T10:13:49.223Z,30.70
2017-09-17T10:16:51.599Z,30.80
2017-09-17T10:19:53.569Z,31.10
2017-09-17T10:22:55.884Z,32.00
2017-09-17T10:25:57.831Z,33.20
2017-09-17T10:29:00.202Z,33.30
2017-09-17T10:32:02.137Z,32.90
2017-09-17T10:35:04.504Z,32.20
2017-09-17T10:38:06.444Z,31.80
2017-09-17T10:41:08.803Z,32.10
2017-09-17T10:44:10.774Z,32.40
2017-09-17T10:47:13.763Z,33.30
2017-09-17T10:50:15.791Z,33.80
2017-09-17T10:53:18.152Z,33.70
2017-09-17T10:56:20.293Z,34.10
2017-09-17T10:59:22.655Z,34.40
2017-09-17T11:02:24.601Z,33.60
2017-09-17T11:05:27.166Z,33.50
2017-09-17T11:08:29.125Z,33.60
2017-09-17T11:11:31.485Z,33.70
2017-09-17T11:14:33.543Z,33.60
2017-09-17T11:17:35.929Z,33.10
2017-09-17T11:20:38.639Z,31.70
2017-09-17T11:23:40.991Z,31.60
2017-09-17T11:26:43.048Z,30.40
2017-09-17T11:29:46.431Z,30.10
2017-09-17T11:32:48.390Z,31.90
2017-09-17T11:35:51.186Z,33.80
2017-09-17T11:38:53.124Z,35.00
2017-09-17T11:41:56.104Z,36.20
2017-09-17T11:44:58.038Z,35.50
2017-09-17T11:48:00.492Z,34.20
2017-09-17T11:51:02.537Z,32.80
2017-09-17T11:54:04.894Z,32.80
2017-09-17T11:57:06.832Z,33.70
2017-09-17T12:00:09.200Z,33.30
2017-09-17T12:03:11.222Z,34.80
2017-09-17T12:06:13.626Z,35.40
2017-09-17T12:09:15.565Z,35.90
2017-09-17T12:12:17.913Z,34.40
2017-09-17T12:15:19.865Z,34.20
2017-09-17T12:18:22.785Z,34.50
2017-09-17T12:21:25.888Z,36.00
2017-09-17T12:24:28.254Z,36.00
2017-09-17T12:27:30.307Z,34.40
2017-09-17T12:30:32.601Z,32.30
2017-09-17T12:33:34.623Z,29.90
2017-09-17T12:36:36.962Z,30.20
2017-09-17T12:39:38.914Z,31.50
2017-09-17T12:42:42.037Z,30.80
2017-09-17T12:45:44.146Z,30.60
2017-09-17T12:48:46.523Z,29.90
2017-09-17T12:51:48.553Z,28.70
2017-09-17T12:54:50.907Z,28.20
2017-09-17T12:57:52.858Z,30.80
2017-09-17T13:00:55.215Z,32.50
2017-09-17T13:03:57.150Z,33.50
2017-09-17T13:06:59.536Z,34.90
2017-09-17T13:10:01.515Z,34.30
2017-09-17T13:13:03.827Z,32.50
2017-09-17T13:16:05.763Z,32.50
2017-09-17T13:19:08.128Z,34.40
2017-09-17T13:22:10.075Z,36.10
2017-09-17T13:25:12.428Z,37.20
2017-09-17T13:28:14.391Z,37.40
2017-09-17T13:31:16.747Z,35.20
2017-09-17T13:34:18.697Z,32.90
2017-09-17T13:37:21.066Z,30.60
2017-09-17T13:40:23.101Z,28.70
2017-09-17T13:43:25.471Z,26.90
2017-09-17T13:46:27.421Z,25.50
2017-09-17T13:49:29.795Z,24.50
2017-09-17T13:52:31.732Z,23.70
2017-09-17T13:55:34.214Z,23.00
2017-09-17T13:58:36.252Z,22.50
2017-09-17T14:01:39.502Z,22.00
2017-09-17T14:04:42.293Z,22.80
2017-09-17T14:07:44.753Z,22.80
2017-09-17T14:10:46.790Z,24.70
2017-09-17T14:13:50.456Z,27.10
2017-09-17T14:16:54.046Z,30.00
2017-09-17T14:19:57.157Z,30.80
2017-09-17T14:23:00.139Z,30.80
2017-09-17T14:26:02.489Z,31.80
2017-09-17T14:29:04.544Z,32.90
2017-09-17T14:32:06.896Z,33.90
2017-09-17T14:35:08.832Z,34.70
2017-09-17T14:38:11.205Z,35.20
2017-09-17T14:41:13.322Z,35.60
2017-09-17T14:44:16.433Z,35.20
2017-09-17T14:47:18.483Z,35.20
2017-09-17T14:50:20.808Z,34.90
2017-09-17T14:53:22.762Z,34.70
2017-09-17T14:56:25.053Z,34.70
2017-09-17T14:59:27.090Z,32.70
2017-09-17T15:02:29.454Z,30.80
2017-09-17T15:05:31.395Z,30.30
2017-09-17T15:08:33.781Z,29.10
2017-09-17T15:11:35.838Z,28.80
2017-09-17T15:14:38.174Z,29.00
2017-09-17T15:17:40.904Z,28.50
2017-09-17T15:20:43.271Z,28.40
2017-09-17T15:23:45.288Z,28.00
2017-09-17T15:26:47.662Z,27.40
2017-09-17T15:29:49.611Z,26.70
2017-09-17T15:32:51.887Z,25.70
2017-09-17T15:35:53.893Z,24.40
2017-09-17T15:38:56.239Z,23.10
2017-09-17T15:41:58.215Z,21.70
2017-09-17T15:45:00.569Z,20.60
2017-09-17T15:48:02.608Z,19.60
2017-09-17T15:51:04.973Z,18.80
2017-09-17T15:54:07.089Z,18.30
2017-09-17T15:57:10.296Z,17.50
2017-09-17T16:00:12.315Z,17.40
2017-09-17T16:03:15.438Z,16.50
2017-09-17T16:06:17.493Z,16.50
2017-09-17T16:09:19.839Z,15.70
2017-09-17T16:12:21.775Z,14.90
2017-09-17T16:15:24.250Z,14.20
2017-09-17T16:18:26.198Z,13.70
2017-09-17T16:21:28.560Z,13.40
2017-09-17T16:24:30.540Z,13.20
2017-09-17T16:27:33.653Z,13.20
2017-09-17T16:30:35.665Z,13.10
2017-09-17T16:33:38.170Z,13.10
2017-09-17T16:36:40.110Z,13.10
2017-09-17T16:39:42.412Z,13.10
2017-09-17T16:42:44.355Z,12.90
2017-09-17T16:45:48.243Z,12.80
2017-09-17T16:48:50.263Z,12.60
2017-09-17T16:51:52.630Z,12.50
2017-09-17T16:54:55.358Z,12.50
2017-09-17T16:57:59.141Z,12.30
2017-09-17T17:01:01.850Z,12.30
2017-09-17T17:04:04.196Z,12.20
2017-09-17T17:07:06.156Z,12.20
2017-09-17T17:10:08.619Z,12.30
2017-09-17T17:13:11.695Z,12.30
2017-09-17T17:16:14.040Z,12.30
2017-09-17T17:19:16.005Z,12.30
2017-09-17T17:22:18.300Z,12.30
2017-09-17T17:25:21.110Z,12.40
2017-09-17T17:28:23.411Z,12.40
2017-09-17T17:31:25.450Z,12.30
2017-09-17T17:34:27.807Z,12.30
2017-09-17T17:37:29.795Z,12.20
2017-09-17T17:40:32.899Z,12.20
2017-09-17T17:43:34.834Z,12.20
2017-09-17T17:46:37.223Z,12.10
2017-09-17T17:49:39.271Z,12.10
2017-09-17T17:52:41.629Z,12.00
2017-09-17T17:55:44.509Z,11.90
2017-09-17T17:58:46.850Z,11.90
2017-09-17T18:01:48.788Z,11.90
2017-09-17T18:04:51.145Z,11.80
2017-09-17T18:07:53.102Z,11.80
2017-09-17T18:10:55.490Z,11.80
2017-09-17T18:13:57.422Z,11.80
2017-09-17T18:16:59.773Z,11.70
2017-09-17T18:20:01.718Z,11.70
2017-09-17T18:23:04.133Z,11.60
2017-09-17T18:26:06.936Z,11.60
2017-09-17T18:29:09.304Z,11.60
2017-09-17T18:32:11.542Z,11.60
2017-09-17T18:35:13.924Z,11.60
2017-09-17T18:38:15.973Z,11.60
2017-09-17T18:41:18.416Z,11.50
2017-09-17T18:44:20.370Z,11.50
2017-09-17T18:47:22.737Z,11.50
2017-09-17T18:50:24.784Z,11.50
2017-09-17T18:53:27.136Z,11.50
2017-09-17T18:56:29.201Z,11.50
2017-09-17T18:59:31.636Z,11.40
2017-09-17T19:02:33.697Z,11.40
2017-09-17T19:05:36.055Z,11.40
2017-09-17T19:08:38.228Z,11.30
2017-09-17T19:11:40.560Z,11.30
2017-09-17T19:14:42.599Z,11.30
2017-09-17T19:17:44.979Z,11.30
2017-09-17T19:20:46.903Z,11.20
2017-09-17T19:23:49.260Z,11.10
2017-09-17T19:26:51.200Z,11.10
2017-09-17T19:29:53.577Z,11.10
2017-09-17T19:32:55.551Z,11.10
2017-09-17T19:35:58.769Z,11.10
2017-09-17T19:39:01.591Z,11.10
2017-09-17T19:42:03.919Z,11.10
2017-09-17T19:45:05.868Z,11.10
2017-09-17T19:48:08.239Z,11.10
2017-09-17T19:51:10.200Z,11.10
2017-09-17T19:54:12.561Z,11.10
2017-09-17T19:57:14.598Z,11.10
2017-09-17T20:00:16.934Z,11.00
2017-09-17T20:03:19.888Z,11.00
2017-09-17T20:06:23.003Z,10.90
2017-09-17T20:09:25.038Z,10.80
2017-09-17T20:12:27.409Z,10.80
2017-09-17T20:15:29.472Z,10.70
2017-09-17T20:18:31.840Z,10.60
2017-09-17T20:21:33.779Z,10.60
2017-09-17T20:24:36.146Z,10.60
2017-09-17T20:27:38.372Z,10.60
2017-09-17T20:30:40.751Z,10.50
2017-09-17T20:33:42.780Z,10.40
2017-09-17T20:36:45.137Z,10.40
2017-09-17T20:39:47.082Z,10.40
2017-09-17T20:42:49.413Z,10.40
2017-09-17T20:45:52.204Z,10.40
2017-09-17T20:48:54.572Z,10.40
2017-09-17T20:51:56.514Z,10.40
2017-09-17T20:54:58.880Z,10.40
2017-09-17T20:58:00.929Z,10.40
2017-09-17T21:01:03.296Z,10.40
2017-09-17T21:04:05.327Z,10.40
2017-09-17T21:07:07.706Z,10.40
2017-09-17T21:10:09.653Z,10.30
2017-09-17T21:13:12.014Z,10.30
2017-09-17T21:16:14.039Z,10.40
2017-09-17T21:19:16.491Z,10.40
2017-09-17T21:22:18.460Z,10.40
2017-09-17T21:25:20.918Z,10.50
2017-09-17T21:28:22.984Z,10.50
2017-09-17T21:31:25.336Z,10.60
2017-09-17T21:34:27.397Z,10.50
2017-09-17T21:37:29.728Z,10.50
2017-09-17T21:40:31.780Z,10.50
2017-09-17T21:43:34.130Z,10.40
2017-09-17T21:46:36.210Z,10.30
2017-09-17T21:49:38.581Z,10.30
2017-09-17T21:52:40.518Z,10.20
2017-09-17T21:55:42.847Z,10.20
2017-09-17T21:58:44.794Z,10.10
2017-09-17T22:01:47.177Z,10.00
2017-09-17T22:04:49.303Z,10.00
2017-09-17T22:07:51.693Z,9.90
2017-09-17T22:10:53.676Z,9.80
2017-09-17T22:13:56.887Z,9.70
2017-09-17T22:16:58.842Z,9.70
2017-09-17T22:20:01.197Z,9.70
2017-09-17T22:23:03.150Z,9.60
2017-09-17T22:26:05.490Z,9.50
2017-09-17T22:29:07.421Z,9.40
2017-09-17T22:32:10.522Z,9.30
2017-09-17T22:35:12.532Z,9.30
2017-09-17T22:38:15.580Z,9.30
2017-09-17T22:41:17.601Z,9.20
2017-09-17T22:44:20.625Z,9.20
2017-09-17T22:47:23.329Z,9.10
2017-09-17T22:50:25.674Z,9.10
2017-09-17T22:53:30.657Z,9.10
2017-09-17T22:56:33.176Z,9.20
2017-09-17T22:59:35.252Z,9.20
2017-09-17T23:02:37.590Z,9.20
2017-09-17T23:05:39.511Z,9.10
2017-09-17T23:08:42.074Z,9.10
2017-09-17T23:11:44.044Z,9.10
2017-09-17T23:14:46.511Z,9.10
2017-09-17T23:17:48.527Z,9.10
2017-09-17T23:20:50.791Z,9.00
2017-09-17T23:23:52.746Z,9.00
2017-09-17T23:26:55.132Z,8.90
2017-09-17T23:29:57.059Z,8.90
2017-09-17T23:33:00.137Z,8.80
2017-09-17T23:36:02.068Z,8.80
2017-09-17T23:39:04.442Z,8.70
2017-09-17T23:42:06.377Z,8.60
2017-09-17T23:45:08.768Z,8.60
2017-09-17T23:48:10.747Z,8.60
2017-09-17T23:51:13.860Z,8.50
2017-09-17T23:54:15.836Z,8.50
2017-09-17T23:57:18.196Z,8.50
